sensor_id;sensor_type;location;lat;lon;timestamp;pressure;altitude;pressure_sealevel;temperature;humidity
71770;BME280;66386;52.122;5.420;2023-11-18T00:00:53;102420.47;;;2.33;100.00
71770;BME280;66386;52.122;5.420;2023-11-18T00:03:20;102423.00;;;2.33;100.00
71770;BME280;66386;52.122;5.420;2023-11-18T00:05:47;102425.50;;;2.31;100.00
71770;BME280;66386;52.122;5.420;2023-11-18T00:08:13;102422.06;;;2.29;100.00
71770;BME280;66386;52.122;5.420;2023-11-18T00:10:40;102425.44;;;2.28;100.00
71770;BME280;66386;52.122;5.420;2023-11-18T00:13:06;102422.97;;;2.31;100.00
71770;BME280;66386;52.122;5.420;2023-11-18T00:15:33;102419.75;;;2.38;100.00
71770;BME280;66386;52.122;5.420;2023-11-18T00:18:01;102426.56;;;2.41;100.00
71770;BME280;66386;52.122;5.420;2023-11-18T00:20:28;102424.88;;;2.41;100.00
71770;BME280;66386;52.122;5.420;2023-11-18T00:22:57;102420.72;;;2.45;100.00
71770;BME280;66386;52.122;5.420;2023-11-18T00:25:24;102430.09;;;2.48;100.00
71770;BME280;66386;52.122;5.420;2023-11-18T00:27:50;102436.91;;;2.49;100.00
71770;BME280;66386;52.122;5.420;2023-11-18T00:30:17;102427.53;;;2.46;100.00
71770;BME280;66386;52.122;5.420;2023-11-18T00:32:44;102423.34;;;2.48;100.00
71770;BME280;66386;52.122;5.420;2023-11-18T00:35:10;102426.78;;;2.50;100.00
71770;BME280;66386;52.122;5.420;2023-11-18T00:37:37;102412.41;;;2.51;100.00
71770;BME280;66386;52.122;5.420;2023-11-18T00:40:04;102408.13;;;2.50;100.00
71770;BME280;66386;52.122;5.420;2023-11-18T00:42:31;102405.59;;;2.50;100.00
71770;BME280;66386;52.122;5.420;2023-11-18T00:44:58;102414.88;;;2.48;100.00
71770;BME280;66386;52.122;5.420;2023-11-18T00:47:25;102410.56;;;2.45;100.00
71770;BME280;66386;52.122;5.420;2023-11-18T00:49:51;102406.25;;;2.41;100.00
71770;BME280;66386;52.122;5.420;2023-11-18T00:52:19;102418.88;;;2.38;100.00
71770;BME280;66386;52.122;5.420;2023-11-18T00:54:46;102417.94;;;2.33;100.00
71770;BME280;66386;52.122;5.420;2023-11-18T00:57:12;102417.91;;;2.31;100.00
71770;BME280;66386;52.122;5.420;2023-11-18T00:59:42;102424.59;;;2.29;100.00
71770;BME280;66386;52.122;5.420;2023-11-18T01:02:10;102430.47;;;2.26;100.00
71770;BME280;66386;52.122;5.420;2023-11-18T01:04:37;102433.75;;;2.22;100.00
71770;BME280;66386;52.122;5.420;2023-11-18T01:07:03;102443.13;;;2.25;100.00
71770;BME280;66386;52.122;5.420;2023-11-18T01:09:30;102443.97;;;2.25;100.00
71770;BME280;66386;52.122;5.420;2023-11-18T01:12:03;102435.47;;;2.23;100.00
71770;BME280;66386;52.122;5.420;2023-11-18T01:14:37;102438.09;;;2.26;100.00
71770;BME280;66386;52.122;5.420;2023-11-18T01:17:06;102436.50;;;2.32;100.00
71770;BME280;66386;52.122;5.420;2023-11-18T01:19:32;102441.75;;;2.39;100.00
71770;BME280;66386;52.122;5.420;2023-11-18T01:22:00;102441.06;;;2.47;100.00
71770;BME280;66386;52.122;5.420;2023-11-18T01:24:27;102445.50;;;2.55;100.00
71770;BME280;66386;52.122;5.420;2023-11-18T01:26:54;102450.75;;;2.63;100.00
71770;BME280;66386;52.122;5.420;2023-11-18T01:29:20;102440.75;;;2.71;100.00
71770;BME280;66386;52.122;5.420;2023-11-18T01:31:48;102449.38;;;2.77;100.00
71770;BME280;66386;52.122;5.420;2023-11-18T01:34:19;102441.91;;;2.85;100.00
71770;BME280;66386;52.122;5.420;2023-11-18T01:36:49;102434.44;;;2.93;100.00
71770;BME280;66386;52.122;5.420;2023-11-18T01:39:16;102427.69;;;2.93;100.00
71770;BME280;66386;52.122;5.420;2023-11-18T01:41:47;102439.56;;;2.94;100.00
71770;BME280;66386;52.122;5.420;2023-11-18T01:44:15;102436.94;;;2.90;100.00
71770;BME280;66386;52.122;5.420;2023-11-18T01:46:43;102435.19;;;2.87;100.00
71770;BME280;66386;52.122;5.420;2023-11-18T01:49:14;102420.72;;;2.85;100.00
71770;BME280;66386;52.122;5.420;2023-11-18T01:51:45;102435.16;;;2.86;100.00
71770;BME280;66386;52.122;5.420;2023-11-18T01:54:13;102432.59;;;2.86;100.00
71770;BME280;66386;52.122;5.420;2023-11-18T01:56:46;102425.88;;;2.86;100.00
71770;BME280;66386;52.122;5.420;2023-11-18T01:59:14;102424.16;;;2.87;100.00
71770;BME280;66386;52.122;5.420;2023-11-18T02:01:47;102428.44;;;2.88;100.00
71770;BME280;66386;52.122;5.420;2023-11-18T02:04:16;102433.50;;;2.88;100.00
71770;BME280;66386;52.122;5.420;2023-11-18T02:06:47;102430.97;;;2.88;100.00
71770;BME280;66386;52.122;5.420;2023-11-18T02:09:16;102426.78;;;2.90;100.00
71770;BME280;66386;52.122;5.420;2023-11-18T02:14:27;102431.91;;;2.93;100.00
71770;BME280;66386;52.122;5.420;2023-11-18T02:16:59;102429.44;;;2.96;100.00
71770;BME280;66386;52.122;5.420;2023-11-18T02:19:29;102437.91;;;2.95;100.00
71770;BME280;66386;52.122;5.420;2023-11-18T02:21:57;102436.22;;;2.97;100.00
71770;BME280;66386;52.122;5.420;2023-11-18T02:24:33;102435.50;;;3.03;100.00
71770;BME280;66386;52.122;5.420;2023-11-18T02:27:04;102434.75;;;3.07;100.00
71770;BME280;66386;52.122;5.420;2023-11-18T02:29:36;102440.66;;;3.07;100.00
71770;BME280;66386;52.122;5.420;2023-11-18T02:32:20;102434.72;;;3.05;100.00
71770;BME280;66386;52.122;5.420;2023-11-18T02:35:02;102438.94;;;3.06;100.00
71770;BME280;66386;52.122;5.420;2023-11-18T02:37:32;102429.63;;;3.05;100.00
71770;BME280;66386;52.122;5.420;2023-11-18T02:40:08;102430.47;;;3.06;100.00
71770;BME280;66386;52.122;5.420;2023-11-18T02:42:39;102427.97;;;3.07;100.00
71770;BME280;66386;52.122;5.420;2023-11-18T02:45:07;102428.88;;;3.11;100.00
71770;BME280;66386;52.122;5.420;2023-11-18T02:47:34;102421.28;;;3.12;100.00
71770;BME280;66386;52.122;5.420;2023-11-18T02:50:01;102428.13;;;3.17;100.00
71770;BME280;66386;52.122;5.420;2023-11-18T02:52:31;102404.53;;;3.22;100.00
71770;BME280;66386;52.122;5.420;2023-11-18T02:54:59;102408.84;;;3.26;100.00
71770;BME280;66386;52.122;5.420;2023-11-18T02:57:26;102405.47;;;3.26;100.00
71770;BME280;66386;52.122;5.420;2023-11-18T02:59:52;102392.75;;;3.26;100.00
71770;BME280;66386;52.122;5.420;2023-11-18T03:02:19;102390.28;;;3.29;100.00
71770;BME280;66386;52.122;5.420;2023-11-18T03:04:47;102389.38;;;3.27;100.00
71770;BME280;66386;52.122;5.420;2023-11-18T03:07:13;102398.75;;;3.29;100.00
71770;BME280;66386;52.122;5.420;2023-11-18T03:09:40;102386.00;;;3.28;100.00
71770;BME280;66386;52.122;5.420;2023-11-18T03:12:06;102394.50;;;3.30;100.00
71770;BME280;66386;52.122;5.420;2023-11-18T03:14:34;102396.13;;;3.25;100.00
71770;BME280;66386;52.122;5.420;2023-11-18T03:17:01;102405.41;;;3.23;100.00
71770;BME280;66386;52.122;5.420;2023-11-18T03:19:28;102401.16;;;3.22;100.00
71770;BME280;66386;52.122;5.420;2023-11-18T03:21:55;102400.34;;;3.23;100.00
71770;BME280;66386;52.122;5.420;2023-11-18T03:24:22;102390.22;;;3.26;100.00
71770;BME280;66386;52.122;5.420;2023-11-18T03:26:49;102380.88;;;3.25;100.00
71770;BME280;66386;52.122;5.420;2023-11-18T03:29:15;102380.88;;;3.25;100.00
71770;BME280;66386;52.122;5.420;2023-11-18T03:31:42;102382.59;;;3.26;100.00
71770;BME280;66386;52.122;5.420;2023-11-18T03:34:11;102383.47;;;3.28;100.00
71770;BME280;66386;52.122;5.420;2023-11-18T03:36:37;102380.13;;;3.29;100.00
71770;BME280;66386;52.122;5.420;2023-11-18T03:39:04;102372.59;;;3.35;100.00
71770;BME280;66386;52.122;5.420;2023-11-18T03:41:30;102363.31;;;3.39;100.00
71770;BME280;66386;52.122;5.420;2023-11-18T03:43:57;102361.72;;;3.42;100.00
71770;BME280;66386;52.122;5.420;2023-11-18T03:46:23;102356.66;;;3.44;100.00
71770;BME280;66386;52.122;5.420;2023-11-18T03:48:50;102354.94;;;3.44;100.00
71770;BME280;66386;52.122;5.420;2023-11-18T03:51:16;102349.09;;;3.48;100.00
71770;BME280;66386;52.122;5.420;2023-11-18T03:53:43;102346.56;;;3.50;100.00
71770;BME280;66386;52.122;5.420;2023-11-18T03:56:10;102332.25;;;3.54;100.00
71770;BME280;66386;52.122;5.420;2023-11-18T03:58:36;102333.13;;;3.57;100.00
71770;BME280;66386;52.122;5.420;2023-11-18T04:01:03;102326.41;;;3.58;100.00
71770;BME280;66386;52.122;5.420;2023-11-18T04:03:30;102319.56;;;3.55;100.00
71770;BME280;66386;52.122;5.420;2023-11-18T04:05:58;102318.69;;;3.55;100.00
71770;BME280;66386;52.122;5.420;2023-11-18T04:08:24;102310.19;;;3.53;100.00
71770;BME280;66386;52.122;5.420;2023-11-18T04:10:51;102298.34;;;3.55;100.00
71770;BME280;66386;52.122;5.420;2023-11-18T04:13:18;102305.97;;;3.55;100.00
71770;BME280;66386;52.122;5.420;2023-11-18T04:15:44;102301.75;;;3.54;100.00
71770;BME280;66386;52.122;5.420;2023-11-18T04:18:11;102314.47;;;3.54;100.00
71770;BME280;66386;52.122;5.420;2023-11-18T04:20:38;102317.00;;;3.54;100.00
71770;BME280;66386;52.122;5.420;2023-11-18T04:23:04;102317.06;;;3.58;100.00
71770;BME280;66386;52.122;5.420;2023-11-18T04:25:31;102304.34;;;3.58;100.00
71770;BME280;66386;52.122;5.420;2023-11-18T04:27:58;102292.50;;;3.59;100.00
71770;BME280;66386;52.122;5.420;2023-11-18T04:30:24;102288.34;;;3.64;100.00
71770;BME280;66386;52.122;5.420;2023-11-18T04:32:53;102284.16;;;3.67;100.00
71770;BME280;66386;52.122;5.420;2023-11-18T04:35:20;102279.03;;;3.64;100.00
71770;BME280;66386;52.122;5.420;2023-11-18T04:37:48;102283.25;;;3.64;100.00
71770;BME280;66386;52.122;5.420;2023-11-18T04:40:15;102279.00;;;3.63;100.00
71770;BME280;66386;52.122;5.420;2023-11-18T04:42:42;102278.19;;;3.64;100.00
71770;BME280;66386;52.122;5.420;2023-11-18T04:45:08;102274.78;;;3.65;100.00
71770;BME280;66386;52.122;5.420;2023-11-18T04:47:38;102265.47;;;3.65;100.00
71770;BME280;66386;52.122;5.420;2023-11-18T04:50:06;102261.28;;;3.69;100.00
71770;BME280;66386;52.122;5.420;2023-11-18T04:52:34;102257.06;;;3.68;100.00
71770;BME280;66386;52.122;5.420;2023-11-18T04:55:02;102260.44;;;3.69;100.00
71770;BME280;66386;52.122;5.420;2023-11-18T04:57:29;102265.56;;;3.72;100.00
71770;BME280;66386;52.122;5.420;2023-11-18T04:59:55;102259.66;;;3.73;100.00
71770;BME280;66386;52.122;5.420;2023-11-18T05:02:22;102261.34;;;3.74;100.00
71770;BME280;66386;52.122;5.420;2023-11-18T05:04:49;102265.63;;;3.76;100.00
71770;BME280;66386;52.122;5.420;2023-11-18T05:07:16;102269.09;;;3.81;100.00
71770;BME280;66386;52.122;5.420;2023-11-18T05:09:43;102263.16;;;3.82;100.00
71770;BME280;66386;52.122;5.420;2023-11-18T05:12:10;102263.16;;;3.82;100.00
71770;BME280;66386;52.122;5.420;2023-11-18T05:14:36;102269.09;;;3.81;100.00
71770;BME280;66386;52.122;5.420;2023-11-18T05:17:04;102265.72;;;3.82;100.00
71770;BME280;66386;52.122;5.420;2023-11-18T05:19:31;102257.25;;;3.82;100.00
71770;BME280;66386;52.122;5.420;2023-11-18T05:21:58;102254.72;;;3.85;100.00
71770;BME280;66386;52.122;5.420;2023-11-18T05:24:25;102248.81;;;3.86;100.00
71770;BME280;66386;52.122;5.420;2023-11-18T05:26:51;102241.22;;;3.88;100.00
71770;BME280;66386;52.122;5.420;2023-11-18T05:29:18;102238.72;;;3.91;100.00
71770;BME280;66386;52.122;5.420;2023-11-18T05:31:47;102235.28;;;3.87;100.00
71770;BME280;66386;52.122;5.420;2023-11-18T05:34:14;102243.78;;;3.91;100.00
71770;BME280;66386;52.122;5.420;2023-11-18T05:36:40;102242.97;;;3.92;100.00
71770;BME280;66386;52.122;5.420;2023-11-18T05:39:07;102232.78;;;3.92;100.00
71770;BME280;66386;52.122;5.420;2023-11-18T05:41:37;102243.81;;;3.92;100.00
71770;BME280;66386;52.122;5.420;2023-11-18T05:44:06;102240.47;;;3.96;100.00
71770;BME280;66386;52.122;5.420;2023-11-18T05:46:35;102232.03;;;3.97;100.00
71770;BME280;66386;52.122;5.420;2023-11-18T05:49:03;102230.31;;;3.96;100.00
71770;BME280;66386;52.122;5.420;2023-11-18T05:51:34;102220.94;;;3.95;100.00
71770;BME280;66386;52.122;5.420;2023-11-18T05:54:01;102225.19;;;3.95;100.00
71770;BME280;66386;52.122;5.420;2023-11-18T05:56:28;102226.06;;;3.97;100.00
71770;BME280;66386;52.122;5.420;2023-11-18T05:58:54;102210.81;;;3.97;100.00
71770;BME280;66386;52.122;5.420;2023-11-18T06:01:21;102209.97;;;3.98;100.00
71770;BME280;66386;52.122;5.420;2023-11-18T06:03:48;102195.56;;;4.00;100.00
71770;BME280;66386;52.122;5.420;2023-11-18T06:06:16;102202.38;;;4.01;100.00
71770;BME280;66386;52.122;5.420;2023-11-18T06:08:49;102207.47;;;4.02;100.00
71770;BME280;66386;52.122;5.420;2023-11-18T06:11:16;102209.19;;;4.02;100.00
71770;BME280;66386;52.122;5.420;2023-11-18T06:13:49;102201.56;;;4.04;100.00
71770;BME280;66386;52.122;5.420;2023-11-18T06:16:21;102192.22;;;4.04;100.00
71770;BME280;66386;52.122;5.420;2023-11-18T06:18:51;102198.22;;;4.08;100.00
71770;BME280;66386;52.122;5.420;2023-11-18T06:21:19;102186.38;;;4.10;100.00
71770;BME280;66386;52.122;5.420;2023-11-18T06:23:47;102200.00;;;4.13;100.00
71770;BME280;66386;52.122;5.420;2023-11-18T06:26:14;102206.78;;;4.16;100.00
71770;BME280;66386;52.122;5.420;2023-11-18T06:28:43;102198.31;;;4.15;100.00
71770;BME280;66386;52.122;5.420;2023-11-18T06:31:10;102195.75;;;4.15;100.00
71770;BME280;66386;52.122;5.420;2023-11-18T06:33:42;102195.75;;;4.15;100.00
71770;BME280;66386;52.122;5.420;2023-11-18T06:38:37;102184.75;;;4.15;100.00
71770;BME280;66386;52.122;5.420;2023-11-18T06:41:04;102183.88;;;4.16;100.00
71770;BME280;66386;52.122;5.420;2023-11-18T06:43:35;102191.53;;;4.17;100.00
71770;BME280;66386;52.122;5.420;2023-11-18T06:46:30;102201.72;;;4.17;100.00
71770;BME280;66386;52.122;5.420;2023-11-18T06:49:06;102197.50;;;4.19;100.00
71770;BME280;66386;52.122;5.420;2023-11-18T06:51:35;102190.72;;;4.20;100.00
71770;BME280;66386;52.122;5.420;2023-11-18T06:54:04;102194.16;;;4.21;100.00
71770;BME280;66386;52.122;5.420;2023-11-18T06:56:39;102191.63;;;4.24;100.00
71770;BME280;66386;52.122;5.420;2023-11-18T06:59:10;102202.66;;;4.26;100.00
71770;BME280;66386;52.122;5.420;2023-11-18T07:01:40;102197.56;;;4.26;100.00
71770;BME280;66386;52.122;5.420;2023-11-18T07:04:11;102200.09;;;4.24;100.00
71770;BME280;66386;52.122;5.420;2023-11-18T07:06:38;102191.63;;;4.24;100.00
71770;BME280;66386;52.122;5.420;2023-11-18T07:09:08;102189.94;;;4.26;100.00
71770;BME280;66386;52.122;5.420;2023-11-18T07:11:40;102184.00;;;4.24;100.00
71770;BME280;66386;52.122;5.420;2023-11-18T07:14:10;102184.84;;;4.24;100.00
71770;BME280;66386;52.122;5.420;2023-11-18T07:16:38;102193.31;;;4.25;100.00
71770;BME280;66386;52.122;5.420;2023-11-18T07:19:06;102189.94;;;4.24;100.00
71770;BME280;66386;52.122;5.420;2023-11-18T07:21:34;102201.81;;;4.25;100.00
71770;BME280;66386;52.122;5.420;2023-11-18T07:24:00;102203.50;;;4.25;100.00
71770;BME280;66386;52.122;5.420;2023-11-18T07:26:28;102201.81;;;4.25;100.00
71770;BME280;66386;52.122;5.420;2023-11-18T07:28:55;102206.06;;;4.28;100.00
71770;BME280;66386;52.122;5.420;2023-11-18T07:31:22;102206.94;;;4.27;100.00
71770;BME280;66386;52.122;5.420;2023-11-18T07:33:49;102218.00;;;4.30;100.00
71770;BME280;66386;52.122;5.420;2023-11-18T07:36:16;102220.53;;;4.32;100.00
71770;BME280;66386;52.122;5.420;2023-11-18T07:38:43;102228.19;;;4.33;100.00
71770;BME280;66386;52.122;5.420;2023-11-18T07:41:10;102234.13;;;4.31;100.00
71770;BME280;66386;52.122;5.420;2023-11-18T07:43:50;102224.78;;;4.30;100.00
71770;BME280;66386;52.122;5.420;2023-11-18T07:46:17;102222.25;;;4.31;100.00
71770;BME280;66386;52.122;5.420;2023-11-18T07:48:44;102221.41;;;4.32;100.00
71770;BME280;66386;52.122;5.420;2023-11-18T07:51:12;102202.72;;;4.32;100.00
71770;BME280;66386;52.122;5.420;2023-11-18T07:53:40;102202.75;;;4.33;100.00
71770;BME280;66386;52.122;5.420;2023-11-18T07:56:07;102201.09;;;4.35;100.00
71770;BME280;66386;52.122;5.420;2023-11-18T07:58:37;102190.06;;;4.36;100.00
71770;BME280;66386;52.122;5.420;2023-11-18T08:01:04;102185.88;;;4.40;100.00
71770;BME280;66386;52.122;5.420;2023-11-18T08:03:34;102185.03;;;4.41;100.00
71770;BME280;66386;52.122;5.420;2023-11-18T08:06:00;102179.97;;;4.44;100.00
71770;BME280;66386;52.122;5.420;2023-11-18T08:08:28;102180.81;;;4.46;100.00
71770;BME280;66386;52.122;5.420;2023-11-18T08:10:55;102179.16;;;4.47;100.00
71770;BME280;66386;52.122;5.420;2023-11-18T08:13:22;102169.81;;;4.49;100.00
71770;BME280;66386;52.122;5.420;2023-11-18T08:15:48;102164.75;;;4.50;100.00
71770;BME280;66386;52.122;5.420;2023-11-18T08:18:15;102168.16;;;4.54;100.00
71770;BME280;66386;52.122;5.420;2023-11-18T08:20:43;102159.72;;;4.57;100.00
71770;BME280;66386;52.122;5.420;2023-11-18T08:23:10;102162.28;;;4.60;100.00
71770;BME280;66386;52.122;5.420;2023-11-18T08:25:36;102158.06;;;4.62;100.00
71770;BME280;66386;52.122;5.420;2023-11-18T08:28:03;102156.38;;;4.64;100.00
71770;BME280;66386;52.122;5.420;2023-11-18T08:30:30;102155.56;;;4.66;100.00
71770;BME280;66386;52.122;5.420;2023-11-18T08:33:00;102148.78;;;4.70;100.00
71770;BME280;66386;52.122;5.420;2023-11-18T08:35:31;102137.78;;;4.71;100.00
71770;BME280;66386;52.122;5.420;2023-11-18T08:37:58;102136.06;;;4.73;100.00
71770;BME280;66386;52.122;5.420;2023-11-18T08:40:25;102131.88;;;4.75;100.00
71770;BME280;66386;52.122;5.420;2023-11-18T08:42:53;102122.53;;;4.79;100.00
71770;BME280;66386;52.122;5.420;2023-11-18T08:45:23;102114.97;;;4.83;100.00
71770;BME280;66386;52.122;5.420;2023-11-18T08:47:57;102121.75;;;4.87;100.00
71770;BME280;66386;52.122;5.420;2023-11-18T08:50:24;102125.19;;;4.91;100.00
71770;BME280;66386;52.122;5.420;2023-11-18T08:52:55;102124.41;;;4.97;100.00
71770;BME280;66386;52.122;5.420;2023-11-18T08:55:30;102121.00;;;4.99;100.00
71770;BME280;66386;52.122;5.420;2023-11-18T08:58:09;102110.00;;;5.05;100.00
71770;BME280;66386;52.122;5.420;2023-11-18T09:00:46;102109.16;;;5.07;100.00
71770;BME280;66386;52.122;5.420;2023-11-18T09:03:25;102106.63;;;5.09;100.00
71770;BME280;66386;52.122;5.420;2023-11-18T09:06:06;102109.19;;;5.12;100.00
71770;BME280;66386;52.122;5.420;2023-11-18T09:08:45;102099.00;;;5.14;100.00
71770;BME280;66386;52.122;5.420;2023-11-18T09:11:14;102086.28;;;5.17;100.00
71770;BME280;66386;52.122;5.420;2023-11-18T09:13:45;102070.16;;;5.19;100.00
71770;BME280;66386;52.122;5.420;2023-11-18T09:16:15;102068.50;;;5.20;100.00
71770;BME280;66386;52.122;5.420;2023-11-18T09:18:43;102067.63;;;5.24;100.00
71770;BME280;66386;52.122;5.420;2023-11-18T09:21:12;102065.97;;;5.28;100.00
71770;BME280;66386;52.122;5.420;2023-11-18T09:23:43;102053.22;;;5.28;100.00
71770;BME280;66386;52.122;5.420;2023-11-18T09:26:09;102054.94;;;5.30;100.00
71770;BME280;66386;52.122;5.420;2023-11-18T09:28:37;102053.22;;;5.31;100.00
71770;BME280;66386;52.122;5.420;2023-11-18T09:31:05;102054.94;;;5.32;100.00
71770;BME280;66386;52.122;5.420;2023-11-18T09:33:33;102051.53;;;5.33;100.00
71770;BME280;66386;52.122;5.420;2023-11-18T09:36:01;102047.31;;;5.35;100.00
71770;BME280;66386;52.122;5.420;2023-11-18T09:38:29;102042.22;;;5.35;100.00
71770;BME280;66386;52.122;5.420;2023-11-18T09:41:00;102020.94;;;5.34;100.00
71770;BME280;66386;52.122;5.420;2023-11-18T09:43:36;102017.56;;;5.35;100.00
71770;BME280;66386;52.122;5.420;2023-11-18T09:46:09;101994.63;;;5.35;100.00
71770;BME280;66386;52.122;5.420;2023-11-18T09:48:47;101998.00;;;5.34;100.00
71770;BME280;66386;52.122;5.420;2023-11-18T09:51:21;102007.34;;;5.35;100.00
71770;BME280;66386;52.122;5.420;2023-11-18T09:53:53;102003.97;;;5.38;100.00
71770;BME280;66386;52.122;5.420;2023-11-18T09:59:33;102011.63;;;5.41;100.00
71770;BME280;66386;52.122;5.420;2023-11-18T10:02:03;102006.53;;;5.42;100.00
71770;BME280;66386;52.122;5.420;2023-11-18T10:04:31;102002.28;;;5.43;100.00
71770;BME280;66386;52.122;5.420;2023-11-18T10:07:00;102008.25;;;5.45;100.00
71770;BME280;66386;52.122;5.420;2023-11-18T10:09:28;102009.97;;;5.46;100.00
71770;BME280;66386;52.122;5.420;2023-11-18T10:11:55;102004.88;;;5.48;100.00
71770;BME280;66386;52.122;5.420;2023-11-18T10:14:35;101994.66;;;5.48;100.00
71770;BME280;66386;52.122;5.420;2023-11-18T10:17:06;101988.69;;;5.47;100.00
71770;BME280;66386;52.122;5.420;2023-11-18T10:19:52;101991.25;;;5.49;100.00
71770;BME280;66386;52.122;5.420;2023-11-18T10:22:21;101984.47;;;5.51;100.00
71770;BME280;66386;52.122;5.420;2023-11-18T10:24:50;101987.88;;;5.53;100.00
71770;BME280;66386;52.122;5.420;2023-11-18T10:27:25;101988.75;;;5.55;100.00
71770;BME280;66386;52.122;5.420;2023-11-18T10:29:57;101990.41;;;5.56;100.00
71770;BME280;66386;52.122;5.420;2023-11-18T10:32:24;101992.13;;;5.57;100.00
71770;BME280;66386;52.122;5.420;2023-11-18T10:34:58;101996.41;;;5.59;100.00
71770;BME280;66386;52.122;5.420;2023-11-18T10:37:25;101982.78;;;5.59;100.00
71770;BME280;66386;52.122;5.420;2023-11-18T10:39:52;101968.34;;;5.61;100.00
71770;BME280;66386;52.122;5.420;2023-11-18T10:42:26;101962.38;;;5.62;100.00
71770;BME280;66386;52.122;5.420;2023-11-18T10:44:57;101966.63;;;5.63;100.00
71770;BME280;66386;52.122;5.420;2023-11-18T10:47:34;101952.22;;;5.64;100.00
71770;BME280;66386;52.122;5.420;2023-11-18T10:50:06;101942.00;;;5.64;100.00
71770;BME280;66386;52.122;5.420;2023-11-18T10:52:36;101943.69;;;5.66;100.00
71770;BME280;66386;52.122;5.420;2023-11-18T10:55:04;101944.56;;;5.68;100.00
71770;BME280;66386;52.122;5.420;2023-11-18T10:57:34;101940.28;;;5.70;100.00
71770;BME280;66386;52.122;5.420;2023-11-18T11:00:06;101932.66;;;5.72;100.00
71770;BME280;66386;52.122;5.420;2023-11-18T11:02:46;101925.88;;;5.72;100.00
71770;BME280;66386;52.122;5.420;2023-11-18T11:05:28;101920.75;;;5.74;100.00
71770;BME280;66386;52.122;5.420;2023-11-18T11:07:59;101928.41;;;5.75;100.00
71770;BME280;66386;52.122;5.420;2023-11-18T11:10:26;101920.75;;;5.77;100.00
71770;BME280;66386;52.122;5.420;2023-11-18T11:12:55;101914.78;;;5.78;100.00
71770;BME280;66386;52.122;5.420;2023-11-18T11:15:32;101923.31;;;5.79;100.00
71770;BME280;66386;52.122;5.420;2023-11-18T11:18:20;101913.09;;;5.82;100.00
71770;BME280;66386;52.122;5.420;2023-11-18T11:21:07;101885.88;;;5.82;100.00
71770;BME280;66386;52.122;5.420;2023-11-18T11:24:01;101857.81;;;5.84;100.00
71770;BME280;66386;52.122;5.420;2023-11-18T11:26:56;101836.56;;;5.85;100.00
71770;BME280;66386;52.122;5.420;2023-11-18T11:29:36;101824.63;;;5.87;100.00
71770;BME280;66386;52.122;5.420;2023-11-18T11:34:40;101789.78;;;5.92;100.00
71770;BME280;66386;52.122;5.420;2023-11-18T11:37:14;101791.50;;;5.98;100.00
71770;BME280;66386;52.122;5.420;2023-11-18T11:39:43;101777.03;;;6.00;100.00
71770;BME280;66386;52.122;5.420;2023-11-18T11:42:14;101788.09;;;6.02;100.00
71770;BME280;66386;52.122;5.420;2023-11-18T11:44:44;101782.97;;;6.03;100.00
71770;BME280;66386;52.122;5.420;2023-11-18T11:47:11;101777.88;;;6.06;100.00
71770;BME280;66386;52.122;5.420;2023-11-18T11:49:49;101777.88;;;6.08;100.00
71770;BME280;66386;52.122;5.420;2023-11-18T11:52:27;101780.41;;;6.11;100.00
71770;BME280;66386;52.122;5.420;2023-11-18T11:55:00;101754.88;;;6.14;100.00
71770;BME280;66386;52.122;5.420;2023-11-18T11:57:29;101734.44;;;6.16;100.00
71770;BME280;66386;52.122;5.420;2023-11-18T12:00:03;101728.47;;;6.21;100.00
71770;BME280;66386;52.122;5.420;2023-11-18T12:02:51;101731.84;;;6.23;100.00
71770;BME280;66386;52.122;5.420;2023-11-18T12:05:25;101725.88;;;6.27;100.00
71770;BME280;66386;52.122;5.420;2023-11-18T12:07:53;101725.88;;;6.29;100.00
71770;BME280;66386;52.122;5.420;2023-11-18T12:10:32;101714.78;;;6.32;100.00
71770;BME280;66386;52.122;5.420;2023-11-18T12:15:52;101697.75;;;6.38;100.00
71770;BME280;66386;52.122;5.420;2023-11-18T12:18:30;101689.22;;;6.44;100.00
71770;BME280;66386;52.122;5.420;2023-11-18T12:21:03;101687.47;;;6.49;100.00
71770;BME280;66386;52.122;5.420;2023-11-18T12:23:31;101679.78;;;6.51;100.00
71770;BME280;66386;52.122;5.420;2023-11-18T12:26:00;101680.66;;;6.53;100.00
71770;BME280;66386;52.122;5.420;2023-11-18T12:28:30;101670.41;;;6.57;100.00
71770;BME280;66386;52.122;5.420;2023-11-18T12:31:02;101648.25;;;6.56;100.00
71770;BME280;66386;52.122;5.420;2023-11-18T12:42:04;101626.94;;;6.60;100.00
71770;BME280;66386;52.122;5.420;2023-11-18T12:44:38;101620.97;;;6.60;100.00
71770;BME280;66386;52.122;5.420;2023-11-18T12:47:12;101627.78;;;6.62;100.00
71770;BME280;66386;52.122;5.420;2023-11-18T12:49:45;101603.91;;;6.65;100.00
71770;BME280;66386;52.122;5.420;2023-11-18T12:52:16;101618.41;;;6.64;100.00
71770;BME280;66386;52.122;5.420;2023-11-18T12:54:45;101601.38;;;6.65;100.00
71770;BME280;66386;52.122;5.420;2023-11-18T12:57:19;101540.91;;;6.64;100.00
71770;BME280;66386;52.122;5.420;2023-11-18T12:59:49;101487.25;;;6.66;100.00
71770;BME280;66386;52.122;5.420;2023-11-18T13:02:16;101483.00;;;6.68;100.00
71770;BME280;66386;52.122;5.420;2023-11-18T13:04:46;101488.94;;;6.68;100.00
71770;BME280;66386;52.122;5.420;2023-11-18T13:07:17;101492.31;;;6.69;100.00
71770;BME280;66386;52.122;5.420;2023-11-18T13:09:43;101481.25;;;6.70;100.00
71770;BME280;66386;52.122;5.420;2023-11-18T13:12:13;101505.09;;;6.72;100.00
71770;BME280;66386;52.122;5.420;2023-11-18T13:14:43;101499.97;;;6.72;100.00
71770;BME280;66386;52.122;5.420;2023-11-18T13:17:13;101501.66;;;6.73;100.00
71770;BME280;66386;52.122;5.420;2023-11-18T13:19:43;101497.41;;;6.75;100.00
71770;BME280;66386;52.122;5.420;2023-11-18T13:22:13;101515.28;;;6.75;100.00
71770;BME280;66386;52.122;5.420;2023-11-18T13:24:42;101513.56;;;6.75;100.00